»·PEaware :: QXE2214 KMFR-KSEA

QXE2214 :: KMFR-KSEA

FLIGHT INFORMATION

Flight Status: Arrived
Operator:
Horizon Air
More flights by this operator :: More flights under this callsign
Pilot: Mattia C. (24842)
Aircraft: DEHAVILLAND DASH 8 400
(DH8D)
More flights by this aircraft type
Origin: KMFR Rogue Valley Intl-Medford
United States
Destination: KSEA Seattle-Tacoma Intl
United States
More flights between these airports :: More routes between these airports
Route: +KRIEG HAWKZ7
File this flight plan on PilotEdge
Remarks: RMK / SIMBRIEF
Altitude:
(Current/Filed)
22,000ft
Speed:
(Current/Filed)
325kts
Departed: 01-Jun-19 12:25 PM
Arrived: 01-Jun-19 01:35 PM
Distance/Time
Traveled:
305nm/1:10
Distance/Time
To Go:
Arrived

Flight Plot

Page will automatically refresh every two minutes.

Flight plan parsing failed; only flown route is shown


Map Options




Map Legend


Flown Route
Filed Route
Departure Airport
Arrival Airport
Navaid (VOR, NDB)
Fix

Horizontal Profiles

Position Reports

Time Latitude Longitude Heading Altitude Ground
Speed
01-Jun-19 11:55 42.369108 -122.873312 277 1342ft 0kts
01-Jun-19 11:56 42.369108 -122.873312 277 1342ft 0kts
01-Jun-19 11:57 42.369108 -122.873312 277 1342ft 0kts
01-Jun-19 11:58 42.369108 -122.873312 277 1342ft 0kts
01-Jun-19 11:59 42.369108 -122.873312 277 1342ft 0kts
01-Jun-19 12:01 42.369108 -122.873312 277 1342ft 0kts
01-Jun-19 12:02 42.369108 -122.873312 277 1342ft 0kts
01-Jun-19 12:03 42.369108 -122.873312 277 1342ft 0kts
01-Jun-19 12:04 42.369108 -122.873312 277 1342ft 0kts
01-Jun-19 12:05 42.369108 -122.873312 277 1342ft 0kts
01-Jun-19 12:06 42.369108 -122.873312 277 1342ft 0kts
01-Jun-19 12:07 42.369108 -122.873312 277 1342ft 0kts
01-Jun-19 12:08 42.369108 -122.873312 277 1342ft 0kts
01-Jun-19 12:09 42.369105 -122.873278 277 1342ft 1kts
01-Jun-19 12:10 42.369054 -122.872415 272 1342ft 2kts
01-Jun-19 12:11 42.369046 -122.872220 273 1342ft 0kts
01-Jun-19 12:12 42.369046 -122.872220 273 1342ft 0kts
01-Jun-19 12:13 42.369046 -122.872220 273 1342ft 0kts
01-Jun-19 12:14 42.369125 -122.872331 358 1342ft 0kts
01-Jun-19 12:15 42.369125 -122.872331 358 1342ft 0kts
01-Jun-19 12:16 42.369125 -122.872331 358 1342ft 0kts
01-Jun-19 12:17 42.369125 -122.872331 358 1342ft 0kts
01-Jun-19 12:17 42.369125 -122.872331 358 1342ft 0kts
01-Jun-19 12:19 42.369125 -122.872331 358 1342ft 0kts
01-Jun-19 12:20 42.369125 -122.872331 358 1342ft 0kts
01-Jun-19 12:20 42.369125 -122.872331 358 1342ft 0kts
01-Jun-19 12:22 42.365634 -122.869803 158 1342ft 11kts
01-Jun-19 12:23 42.364079 -122.868969 159 1342ft 1kts
01-Jun-19 12:23 42.363605 -122.868381 75 1342ft 0kts
01-Jun-19 12:24 42.367394 -122.869333 337 1342ft 77kts
01-Jun-19 12:26 42.409055 -122.892972 342 3077ft 162kts
01-Jun-19 12:27 42.457841 -122.907233 348 5171ft 190kts
01-Jun-19 12:27 42.502136 -122.910623 3 7043ft 194kts
01-Jun-19 12:28 42.556683 -122.905181 3 9018ft 200kts
01-Jun-19 12:30 42.622603 -122.898995 3 11492ft 203kts
01-Jun-19 12:30 42.672593 -122.894397 3 12402ft 244kts
01-Jun-19 12:31 42.745764 -122.887397 4 12974ft 276kts
01-Jun-19 12:32 42.822301 -122.880108 3 13777ft 284kts
01-Jun-19 12:33 42.899843 -122.872857 3 14616ft 286kts
01-Jun-19 12:34 42.977674 -122.865508 3 15336ft 289kts
01-Jun-19 12:35 43.054918 -122.858200 3 15983ft 291kts
01-Jun-19 12:36 43.133826 -122.850753 3 16568ft 294kts
01-Jun-19 12:37 43.214790 -122.843059 3 17130ft 295kts
01-Jun-19 12:38 43.296172 -122.835319 3 17608ft 297kts
01-Jun-19 12:39 43.377642 -122.827528 3 18067ft 298kts
01-Jun-19 12:40 43.458668 -122.819793 3 18746ft 290kts
01-Jun-19 12:41 43.536075 -122.812371 3 19726ft 276kts
01-Jun-19 12:42 43.610709 -122.805173 2 20622ft 269kts
01-Jun-19 12:43 43.684523 -122.798167 3 21409ft 263kts
01-Jun-19 12:44 43.756059 -122.791168 3 21995ft 265kts
01-Jun-19 12:45 43.832014 -122.783845 3 22053ft 285kts
01-Jun-19 12:46 43.910994 -122.776113 3 22057ft 299kts
01-Jun-19 12:47 43.994633 -122.767975 3 22059ft 308kts
01-Jun-19 12:48 44.080780 -122.759500 3 22059ft 316kts
01-Jun-19 12:49 44.165158 -122.751254 3 22061ft 320kts
01-Jun-19 12:50 44.255385 -122.742390 3 22063ft 323kts
01-Jun-19 12:51 44.345822 -122.733439 3 22063ft 324kts
01-Jun-19 12:52 44.435978 -122.724537 3 22063ft 325kts
01-Jun-19 12:53 44.527600 -122.715432 3 22059ft 326kts
01-Jun-19 12:54 44.618758 -122.706348 3 22059ft 326kts
01-Jun-19 12:55 44.708906 -122.697341 3 22058ft 326kts
01-Jun-19 12:56 44.797312 -122.688480 3 22057ft 327kts
01-Jun-19 12:57 44.889762 -122.679183 3 22056ft 327kts
01-Jun-19 12:58 44.980693 -122.670016 2 22061ft 327kts
01-Jun-19 12:59 45.071412 -122.660850 2 22065ft 327kts
01-Jun-19 13:00 45.162678 -122.651583 2 22069ft 327kts
01-Jun-19 13:01 45.253725 -122.642316 2 22071ft 327kts
01-Jun-19 13:02 45.342631 -122.633239 2 22054ft 328kts
01-Jun-19 13:03 45.430971 -122.624191 2 22052ft 323kts
01-Jun-19 13:04 45.520449 -122.615014 2 22043ft 326kts
01-Jun-19 13:05 45.610638 -122.605716 2 22044ft 327kts
01-Jun-19 13:06 45.700175 -122.596601 0 22042ft 323kts
01-Jun-19 13:07 45.790250 -122.612579 350 22038ft 325kts
01-Jun-19 13:08 45.879214 -122.630834 350 22047ft 326kts
01-Jun-19 13:09 45.967281 -122.648919 350 22048ft 327kts
01-Jun-19 13:10 46.056109 -122.667098 350 22056ft 328kts
01-Jun-19 13:11 46.144834 -122.685478 350 22066ft 328kts
01-Jun-19 13:12 46.232065 -122.703671 350 22072ft 329kts
01-Jun-19 13:13 46.322028 -122.722545 350 22073ft 329kts
01-Jun-19 13:14 46.408636 -122.743429 0 22077ft 329kts
01-Jun-19 13:15 46.499251 -122.739827 359 22078ft 329kts
01-Jun-19 13:16 46.588722 -122.739259 358 21009ft 318kts
01-Jun-19 13:17 46.676747 -122.739201 358 19050ft 331kts
01-Jun-19 13:18 46.769338 -122.737103 8 17051ft 339kts
01-Jun-19 13:19 46.847732 -122.665169 37 15069ft 337kts
01-Jun-19 13:20 46.918859 -122.583352 36 13087ft 321kts
01-Jun-19 13:21 46.996367 -122.535464 14 11682ft 299kts
01-Jun-19 13:22 47.074947 -122.502355 13 10678ft 289kts
01-Jun-19 13:23 47.152107 -122.486670 4 9688ft 280kts
01-Jun-19 13:24 47.224950 -122.474542 4 8718ft 268kts
01-Jun-19 13:25 47.296802 -122.463721 4 7881ft 258kts
01-Jun-19 13:26 47.366138 -122.454610 0 7096ft 253kts
01-Jun-19 13:27 47.435280 -122.454973 358 6305ft 250kts
01-Jun-19 13:28 47.502756 -122.455372 358 5371ft 243kts
01-Jun-19 13:29 47.564527 -122.441437 37 4386ft 237kts
01-Jun-19 13:30 47.584418 -122.354573 86 2852ft 243kts
01-Jun-19 13:31 47.557338 -122.289150 187 1984ft 181kts
01-Jun-19 13:32 47.516318 -122.304474 188 1468ft 128kts
01-Jun-19 13:33 47.480041 -122.307376 179 764ft 137kts
01-Jun-19 13:34 47.447771 -122.307873 180 440ft 38kts
01-Jun-19 13:35 47.445773 -122.307032 91 440ft 1kts
01-Jun-19 13:36 47.445832 -122.305715 73 440ft 7kts
01-Jun-19 13:37 47.445916 -122.305614 8 440ft 2kts
01-Jun-19 13:38 47.446152 -122.304850 89 440ft 0kts
01-Jun-19 13:39 47.446152 -122.304850 89 440ft 0kts
01-Jun-19 13:40 47.446152 -122.304850 89 440ft 0kts
01-Jun-19 13:41 47.446152 -122.304850 89 440ft 0kts
01-Jun-19 13:42 47.446152 -122.304850 89 440ft 0kts
01-Jun-19 13:43 47.446152 -122.304850 89 440ft 0kts
01-Jun-19 13:44 47.446152 -122.304850 89 440ft 0kts
01-Jun-19 13:45 47.446152 -122.304850 89 440ft 0kts
01-Jun-19 13:46 47.446152 -122.304850 89 440ft 0kts
01-Jun-19 13:47 47.446152 -122.304850 89 440ft 0kts
01-Jun-19 13:48 47.446152 -122.304850 89 440ft 0kts

Navigation Log

Ident Type
Flight plan parsing failed, navigation log unavailable